createdAt,value
2023-06-30T05:00:50.594Z,19.95
2023-06-30T05:01:50.596Z,19.99
2023-06-30T05:02:50.546Z,20.03
2023-06-30T05:03:50.593Z,20.06
2023-06-30T05:04:50.493Z,19.99
2023-06-30T05:05:50.474Z,20.10
2023-06-30T05:06:50.483Z,20.16
2023-06-30T05:07:50.462Z,20.14
2023-06-30T05:08:50.449Z,20.18
2023-06-30T05:09:50.456Z,20.11
2023-06-30T05:10:50.459Z,20.13
2023-06-30T05:11:55.442Z,20.16
2023-06-30T05:12:50.399Z,20.13
2023-06-30T05:13:50.389Z,20.11
2023-06-30T05:14:50.382Z,20.10
2023-06-30T05:15:50.740Z,20.11
2023-06-30T05:16:50.505Z,20.10
2023-06-30T05:17:50.391Z,20.21
2023-06-30T05:18:50.331Z,20.18
2023-06-30T05:19:50.319Z,20.24
2023-06-30T05:20:50.345Z,20.28
2023-06-30T05:21:50.315Z,20.24
2023-06-30T05:22:55.319Z,20.26
2023-06-30T05:23:50.275Z,20.36
2023-06-30T05:24:50.289Z,20.32
2023-06-30T05:25:50.263Z,20.31
2023-06-30T05:26:50.273Z,20.32
2023-06-30T05:27:50.282Z,20.33
2023-06-30T05:29:03.475Z,20.35
2023-06-30T05:29:51.218Z,20.43
2023-06-30T05:30:50.212Z,20.38
2023-06-30T05:31:50.229Z,20.51
2023-06-30T05:32:50.252Z,20.50
2023-06-30T05:33:55.260Z,20.48
2023-06-30T05:34:50.161Z,20.51
2023-06-30T05:35:50.144Z,20.55
2023-06-30T05:36:50.130Z,20.62
2023-06-30T05:37:50.121Z,20.59
2023-06-30T05:38:50.105Z,20.67
2023-06-30T05:39:50.128Z,20.69
2023-06-30T05:40:50.080Z,20.70
2023-06-30T05:41:50.076Z,20.80
2023-06-30T05:42:50.080Z,20.80
2023-06-30T05:43:50.058Z,20.89
2023-06-30T05:44:55.076Z,20.94
2023-06-30T05:45:50.035Z,21.03
2023-06-30T05:46:50.077Z,20.97
2023-06-30T05:47:50.034Z,21.01
2023-06-30T05:48:50.032Z,20.97
2023-06-30T05:49:49.996Z,20.89
2023-06-30T05:50:49.974Z,20.92
2023-06-30T05:51:49.974Z,20.97
2023-06-30T05:52:49.998Z,20.97
2023-06-30T05:53:49.985Z,20.99
2023-06-30T05:54:49.931Z,21.04
2023-06-30T05:55:54.940Z,21.01
2023-06-30T05:56:49.915Z,21.09
2023-06-30T05:57:49.904Z,21.07
2023-06-30T05:58:49.896Z,21.10
2023-06-30T05:59:49.894Z,21.03
2023-06-30T06:00:49.866Z,21.04
2023-06-30T06:01:51.059Z,21.07
2023-06-30T06:02:49.939Z,20.98
2023-06-30T06:03:50.014Z,21.07
2023-06-30T06:04:49.987Z,21.06
2023-06-30T06:05:50.302Z,21.04
2023-06-30T06:06:54.865Z,21.09
2023-06-30T06:07:49.782Z,21.06
2023-06-30T06:08:49.796Z,21.03
2023-06-30T06:09:49.772Z,21.17
2023-06-30T06:10:49.761Z,21.10
2023-06-30T06:11:49.753Z,21.04
2023-06-30T06:12:49.774Z,21.19
2023-06-30T06:13:49.728Z,21.22
2023-06-30T06:14:49.709Z,21.21
2023-06-30T06:15:49.712Z,21.22
2023-06-30T06:16:49.753Z,21.19
2023-06-30T06:17:54.765Z,21.22
2023-06-30T06:18:49.664Z,21.29
2023-06-30T06:19:49.650Z,21.29
2023-06-30T06:20:49.660Z,21.28
2023-06-30T06:21:49.635Z,21.42
2023-06-30T06:22:49.629Z,21.44
2023-06-30T06:23:49.622Z,21.34
2023-06-30T06:24:49.608Z,21.38
2023-06-30T06:25:49.926Z,21.31
2023-06-30T06:26:49.581Z,21.37
2023-06-30T06:27:49.573Z,21.37
2023-06-30T06:28:54.571Z,21.42
2023-06-30T06:29:49.540Z,21.40
2023-06-30T06:30:49.586Z,21.37
2023-06-30T06:31:49.531Z,21.34
2023-06-30T06:32:49.555Z,21.40
2023-06-30T06:33:49.511Z,21.37
2023-06-30T06:34:49.497Z,21.38
2023-06-30T06:35:49.476Z,21.37
2023-06-30T06:36:49.498Z,21.29
2023-06-30T06:37:49.455Z,21.21
2023-06-30T06:38:49.454Z,21.29
2023-06-30T06:39:54.457Z,21.32
2023-06-30T06:40:49.420Z,21.32
2023-06-30T06:41:49.424Z,21.17
2023-06-30T06:42:49.410Z,21.22
2023-06-30T06:43:49.387Z,21.06
2023-06-30T06:44:49.372Z,21.19
2023-06-30T06:45:49.362Z,21.17
2023-06-30T06:46:49.391Z,21.09
2023-06-30T06:47:49.351Z,21.14
2023-06-30T06:48:49.364Z,21.12
2023-06-30T06:49:49.318Z,21.22
2023-06-30T06:50:54.361Z,21.16
2023-06-30T06:51:49.310Z,21.19
2023-06-30T06:52:49.318Z,21.22
2023-06-30T06:53:49.282Z,21.27
2023-06-30T06:54:49.279Z,21.28
2023-06-30T06:55:49.263Z,21.40
2023-06-30T06:56:49.252Z,21.37
2023-06-30T06:57:49.232Z,21.42
2023-06-30T06:58:49.216Z,21.49
2023-06-30T06:59:49.206Z,21.53
2023-06-30T07:00:49.276Z,21.54
2023-06-30T07:01:54.262Z,21.64
2023-06-30T07:02:49.209Z,21.59
2023-06-30T07:03:49.256Z,21.58
2023-06-30T07:04:49.159Z,21.56
2023-06-30T07:05:49.285Z,21.64
2023-06-30T07:06:49.139Z,21.68
2023-06-30T07:07:49.383Z,21.69
2023-06-30T07:08:49.129Z,21.71
2023-06-30T07:09:49.111Z,21.67
2023-06-30T07:10:49.168Z,21.72
2023-06-30T07:11:49.108Z,21.71
2023-06-30T07:12:54.097Z,21.68
2023-06-30T07:13:49.076Z,21.62
2023-06-30T07:14:50.230Z,21.67
2023-06-30T07:15:49.099Z,21.58
2023-06-30T07:16:49.165Z,21.69
2023-06-30T07:17:49.221Z,21.71
2023-06-30T07:18:49.047Z,21.68
2023-06-30T07:19:49.002Z,21.75
2023-06-30T07:20:49.070Z,21.72
2023-06-30T07:21:48.965Z,21.69
2023-06-30T07:22:48.995Z,21.52
2023-06-30T07:23:53.980Z,21.54
2023-06-30T07:24:48.958Z,21.49
2023-06-30T07:25:49.185Z,21.65
2023-06-30T07:26:48.922Z,21.68
2023-06-30T07:27:48.907Z,21.72
2023-06-30T07:28:48.897Z,21.75
2023-06-30T07:29:48.903Z,21.72
2023-06-30T07:30:49.025Z,21.67
2023-06-30T07:31:48.885Z,21.75
2023-06-30T07:32:48.936Z,21.68
2023-06-30T07:33:48.839Z,21.77
2023-06-30T07:34:53.836Z,21.80
2023-06-30T07:35:49.298Z,21.77
2023-06-30T07:36:48.802Z,21.71
2023-06-30T07:37:48.784Z,21.72
2023-06-30T07:38:48.793Z,21.79
2023-06-30T07:39:48.889Z,21.72
2023-06-30T07:41:48.775Z,21.83
2023-06-30T07:42:48.767Z,21.88
2023-06-30T07:43:48.736Z,21.86
2023-06-30T07:44:48.710Z,21.82
2023-06-30T07:45:53.759Z,21.92
2023-06-30T07:46:48.680Z,21.96
2023-06-30T07:47:49.019Z,21.94
2023-06-30T07:48:48.759Z,22.05
2023-06-30T07:49:48.651Z,22.12
2023-06-30T07:51:03.414Z,22.10
2023-06-30T07:51:48.628Z,22.21
2023-06-30T07:52:48.626Z,22.15
2023-06-30T07:53:48.605Z,22.09
2023-06-30T07:54:48.602Z,22.17
2023-06-30T07:55:48.650Z,22.20
2023-06-30T07:56:53.627Z,22.18
2023-06-30T07:57:48.624Z,22.22
2023-06-30T07:58:48.551Z,22.10
2023-06-30T07:59:48.543Z,22.20
2023-06-30T08:00:48.525Z,22.14
2023-06-30T08:01:48.540Z,22.24
2023-06-30T08:02:48.803Z,22.20
2023-06-30T08:03:48.576Z,22.21
2023-06-30T08:04:48.647Z,22.21
2023-06-30T08:05:49.081Z,22.18
2023-06-30T08:06:48.460Z,22.12
2023-06-30T08:07:53.571Z,22.12
2023-06-30T08:08:48.441Z,22.09
2023-06-30T08:09:48.437Z,22.09
2023-06-30T08:10:48.443Z,22.06
2023-06-30T08:11:48.439Z,21.88
2023-06-30T08:12:48.406Z,21.92
2023-06-30T08:13:48.408Z,21.86
2023-06-30T08:14:48.372Z,21.91
2023-06-30T08:15:49.515Z,21.83
2023-06-30T08:16:48.469Z,21.71
2023-06-30T08:17:55.024Z,21.82
2023-06-30T08:18:54.418Z,21.77
2023-06-30T08:19:49.869Z,21.77
2023-06-30T08:20:48.305Z,21.72
2023-06-30T08:21:48.312Z,21.69
2023-06-30T08:22:48.288Z,21.75
2023-06-30T08:23:48.272Z,21.82
2023-06-30T08:24:48.262Z,21.83
2023-06-30T08:25:48.278Z,21.71
2023-06-30T08:26:48.250Z,21.75
2023-06-30T08:27:48.269Z,21.69
2023-06-30T08:28:48.214Z,21.72
2023-06-30T08:29:53.244Z,21.72
2023-06-30T08:30:48.254Z,21.72
2023-06-30T08:31:48.220Z,21.75
2023-06-30T08:32:48.216Z,21.68
2023-06-30T08:33:48.166Z,21.61
2023-06-30T08:34:48.151Z,21.52
2023-06-30T08:35:48.177Z,21.53
2023-06-30T08:36:48.128Z,21.54
2023-06-30T08:37:50.917Z,21.54
2023-06-30T08:38:48.127Z,21.65
2023-06-30T08:39:48.100Z,21.77
2023-06-30T08:40:53.116Z,21.79
2023-06-30T08:41:48.075Z,21.82
2023-06-30T08:42:48.059Z,21.96
2023-06-30T08:43:48.073Z,21.80
2023-06-30T08:44:48.067Z,21.75
2023-06-30T08:45:48.280Z,21.84
2023-06-30T08:46:48.080Z,21.69
2023-06-30T08:47:48.068Z,21.61
2023-06-30T08:48:48.044Z,21.67
2023-06-30T08:49:48.005Z,21.49
2023-06-30T08:50:48.036Z,21.61
2023-06-30T08:51:52.990Z,21.54
2023-06-30T08:52:47.992Z,21.40
2023-06-30T08:53:47.956Z,21.43
2023-06-30T08:54:47.944Z,21.43
2023-06-30T08:55:48.281Z,21.49
2023-06-30T08:56:47.920Z,21.44
2023-06-30T08:57:47.908Z,21.42
2023-06-30T08:58:47.900Z,21.43
2023-06-30T08:59:47.988Z,21.31
2023-06-30T09:00:47.890Z,21.28
2023-06-30T09:01:47.882Z,21.22
2023-06-30T09:02:52.965Z,21.21
2023-06-30T09:03:47.910Z,21.27
2023-06-30T09:04:47.859Z,21.21
2023-06-30T09:05:47.998Z,21.21
2023-06-30T09:06:47.801Z,21.24
2023-06-30T09:07:47.918Z,21.31
2023-06-30T09:08:47.810Z,21.29
2023-06-30T09:09:47.810Z,21.42
2023-06-30T09:10:47.756Z,21.34
2023-06-30T09:11:47.757Z,21.34
2023-06-30T09:12:47.758Z,21.34
2023-06-30T09:13:52.757Z,21.28
2023-06-30T09:14:49.498Z,21.24
2023-06-30T09:15:48.109Z,21.34
2023-06-30T09:16:47.726Z,21.24
2023-06-30T09:17:47.800Z,21.19
2023-06-30T09:18:47.681Z,21.16
2023-06-30T09:19:47.668Z,21.16
2023-06-30T09:20:47.645Z,21.13
2023-06-30T09:21:47.660Z,21.17
2023-06-30T09:22:53.032Z,21.06
2023-06-30T09:23:47.624Z,20.92
2023-06-30T09:24:52.632Z,20.94
2023-06-30T09:25:47.899Z,20.92
2023-06-30T09:26:47.580Z,20.87
2023-06-30T09:27:47.587Z,20.85
2023-06-30T09:28:47.572Z,20.88
2023-06-30T09:29:47.561Z,20.84
2023-06-30T09:30:47.787Z,20.73
2023-06-30T09:31:47.556Z,20.70
2023-06-30T09:32:47.562Z,20.67
2023-06-30T09:33:47.514Z,20.77
2023-06-30T09:34:47.487Z,20.70
2023-06-30T09:35:52.501Z,20.67
2023-06-30T09:36:47.473Z,20.72
2023-06-30T09:37:47.475Z,20.69
2023-06-30T09:38:47.446Z,20.72
2023-06-30T09:39:47.459Z,20.57
2023-06-30T09:40:47.426Z,20.66
2023-06-30T09:41:47.431Z,20.69
2023-06-30T09:42:48.330Z,20.66
2023-06-30T09:43:47.394Z,20.70
2023-06-30T09:44:47.374Z,20.72
2023-06-30T09:45:47.974Z,20.72
2023-06-30T09:46:52.462Z,20.76
2023-06-30T09:47:47.381Z,20.87
2023-06-30T09:48:47.334Z,20.85
2023-06-30T09:49:47.424Z,21.04
2023-06-30T09:50:47.311Z,21.27
2023-06-30T09:51:47.309Z,21.19
2023-06-30T09:52:47.292Z,21.25
2023-06-30T09:53:47.291Z,21.19
2023-06-30T09:54:47.263Z,21.14
2023-06-30T09:55:47.437Z,21.12
2023-06-30T09:56:47.257Z,21.25
2023-06-30T09:57:52.255Z,21.21
2023-06-30T09:58:48.108Z,21.24
2023-06-30T09:59:47.221Z,21.35
2023-06-30T10:00:47.200Z,21.32
2023-06-30T10:01:47.228Z,21.32
2023-06-30T10:02:47.290Z,21.34
2023-06-30T10:03:47.194Z,21.40
2023-06-30T10:04:47.158Z,21.44
2023-06-30T10:05:47.502Z,21.43
2023-06-30T10:06:47.137Z,21.47
2023-06-30T10:07:47.123Z,21.50
2023-06-30T10:08:52.129Z,21.53
2023-06-30T10:09:47.107Z,21.58
2023-06-30T10:10:47.132Z,21.52
2023-06-30T10:11:47.097Z,21.64
2023-06-30T10:12:47.077Z,21.62
2023-06-30T10:13:47.052Z,21.65
2023-06-30T10:14:47.041Z,21.58
2023-06-30T10:15:47.461Z,21.53
2023-06-30T10:16:47.021Z,21.54
2023-06-30T10:17:47.134Z,21.56
2023-06-30T10:18:47.077Z,21.53
2023-06-30T10:19:52.027Z,21.59
2023-06-30T10:21:47.975Z,21.47
2023-06-30T10:22:46.961Z,21.58
2023-06-30T10:23:46.950Z,21.54
2023-06-30T10:24:46.949Z,21.74
2023-06-30T10:25:47.297Z,21.69
2023-06-30T10:26:46.913Z,21.69
2023-06-30T10:27:46.895Z,21.71
2023-06-30T10:28:46.930Z,21.71
2023-06-30T10:29:46.889Z,21.71
2023-06-30T10:30:51.932Z,21.54
2023-06-30T10:31:46.888Z,21.53
2023-06-30T10:32:46.950Z,21.52
2023-06-30T10:33:46.867Z,21.43
2023-06-30T10:34:46.857Z,21.50
2023-06-30T10:35:47.134Z,21.43
2023-06-30T10:36:46.818Z,21.50
2023-06-30T10:37:46.791Z,21.47
2023-06-30T10:38:46.812Z,21.50
2023-06-30T10:39:46.781Z,21.56
2023-06-30T10:40:46.772Z,21.62
2023-06-30T10:41:51.777Z,21.71
2023-06-30T10:42:46.794Z,21.74
2023-06-30T10:43:46.760Z,21.72
2023-06-30T10:44:46.722Z,21.71
2023-06-30T10:45:46.819Z,21.69
2023-06-30T10:46:46.718Z,21.56
2023-06-30T10:47:46.703Z,21.58
2023-06-30T10:48:46.679Z,21.54
2023-06-30T10:49:46.696Z,21.43
2023-06-30T10:50:46.678Z,21.44
2023-06-30T10:51:46.636Z,21.46
2023-06-30T10:52:51.671Z,21.46
2023-06-30T10:53:46.630Z,21.42
2023-06-30T10:54:46.639Z,21.42
2023-06-30T10:55:47.056Z,21.42
2023-06-30T10:56:46.640Z,21.43
2023-06-30T10:57:46.577Z,21.43
2023-06-30T10:58:46.583Z,21.44
2023-06-30T10:59:46.557Z,21.44
2023-06-30T11:00:46.548Z,21.52
2023-06-30T11:01:46.540Z,21.53
2023-06-30T11:02:46.670Z,21.59
2023-06-30T11:03:51.713Z,21.61
2023-06-30T11:04:46.633Z,21.80
2023-06-30T11:05:46.659Z,22.02
2023-06-30T11:06:46.516Z,22.15
2023-06-30T11:07:46.497Z,22.30
2023-06-30T11:08:46.451Z,22.40
2023-06-30T11:09:46.531Z,22.30
2023-06-30T11:10:46.432Z,22.28
2023-06-30T11:11:46.424Z,22.28
2023-06-30T11:12:46.420Z,22.36
2023-06-30T11:13:46.439Z,22.60
2023-06-30T11:14:51.402Z,22.76
2023-06-30T11:15:47.294Z,22.97
2023-06-30T11:16:46.386Z,23.01
2023-06-30T11:17:46.421Z,23.15
2023-06-30T11:18:46.472Z,23.20
2023-06-30T11:19:46.360Z,23.28
2023-06-30T11:20:46.324Z,23.33
2023-06-30T11:21:46.323Z,23.28
2023-06-30T11:22:46.431Z,23.10
2023-06-30T11:23:46.284Z,23.10
2023-06-30T11:24:46.268Z,23.01
2023-06-30T11:25:51.289Z,22.95
2023-06-30T11:26:46.258Z,22.77
2023-06-30T11:27:46.267Z,22.77
2023-06-30T11:28:46.243Z,22.70
2023-06-30T11:29:46.322Z,22.57
2023-06-30T11:30:46.253Z,22.55
2023-06-30T11:31:46.201Z,22.45
2023-06-30T11:32:46.215Z,22.52
2023-06-30T11:33:46.170Z,22.47
2023-06-30T11:34:46.166Z,22.49
2023-06-30T11:35:46.393Z,22.52
2023-06-30T11:36:51.206Z,22.47
2023-06-30T11:37:46.121Z,22.52
2023-06-30T11:38:46.151Z,22.51
2023-06-30T11:39:46.101Z,22.46
2023-06-30T11:40:46.108Z,22.47
2023-06-30T11:41:46.090Z,22.49
2023-06-30T11:42:46.067Z,22.51
2023-06-30T11:43:46.056Z,22.37
2023-06-30T11:44:46.127Z,22.42
2023-06-30T11:45:46.244Z,22.27
2023-06-30T11:46:46.068Z,22.22
2023-06-30T11:47:51.091Z,22.24
2023-06-30T11:48:46.041Z,22.22
2023-06-30T11:49:46.006Z,22.28
2023-06-30T11:50:46.177Z,22.33
2023-06-30T11:51:45.991Z,22.22
2023-06-30T11:52:45.961Z,22.15
2023-06-30T11:53:45.955Z,22.15
2023-06-30T11:54:45.973Z,22.24
2023-06-30T11:55:46.189Z,22.09
2023-06-30T11:56:45.969Z,22.15
2023-06-30T11:57:45.938Z,22.15
2023-06-30T11:58:50.945Z,22.15
2023-06-30T11:59:45.911Z,22.47
2023-06-30T12:00:46.187Z,22.92
2023-06-30T12:01:45.860Z,23.01
2023-06-30T12:02:47.305Z,23.09
2023-06-30T12:03:45.929Z,22.98
2023-06-30T12:04:45.894Z,23.01
2023-06-30T12:05:46.065Z,23.32
2023-06-30T12:06:45.807Z,23.42
2023-06-30T12:07:45.822Z,23.43
2023-06-30T12:08:45.797Z,23.51
2023-06-30T12:09:50.811Z,23.60
2023-06-30T12:10:45.971Z,23.63
2023-06-30T12:11:45.760Z,23.90
2023-06-30T12:12:45.753Z,24.32
2023-06-30T12:13:45.740Z,24.25
2023-06-30T12:14:45.716Z,24.43
2023-06-30T12:15:45.998Z,24.65
2023-06-30T12:16:46.538Z,24.69
2023-06-30T12:17:45.837Z,24.67
2023-06-30T12:18:45.689Z,24.58
2023-06-30T12:19:45.678Z,24.60
2023-06-30T12:20:50.676Z,24.80
2023-06-30T12:21:45.664Z,25.09
2023-06-30T12:22:45.669Z,25.03
2023-06-30T12:23:45.688Z,25.06
2023-06-30T12:24:45.608Z,25.23
2023-06-30T12:25:45.911Z,25.17
2023-06-30T12:26:45.587Z,25.58
2023-06-30T12:27:45.597Z,25.87
2023-06-30T12:28:45.566Z,26.06
2023-06-30T12:29:45.574Z,26.32
2023-06-30T12:30:45.957Z,26.43
2023-06-30T12:31:45.563Z,26.33
2023-06-30T12:32:45.578Z,26.26
2023-06-30T12:33:50.528Z,26.12
2023-06-30T12:34:45.602Z,26.01
2023-06-30T12:35:45.775Z,25.79
2023-06-30T12:36:45.486Z,25.64
2023-06-30T12:37:45.482Z,25.39
2023-06-30T12:38:45.465Z,25.30
2023-06-30T12:39:45.465Z,25.20
2023-06-30T12:40:45.800Z,25.08
2023-06-30T12:41:45.467Z,24.85
2023-06-30T12:42:45.412Z,24.62
2023-06-30T12:43:45.459Z,24.21
2023-06-30T12:44:45.389Z,24.24
2023-06-30T12:45:45.378Z,24.25
2023-06-30T12:46:50.403Z,24.30
2023-06-30T12:47:45.433Z,24.30
2023-06-30T12:48:45.394Z,24.39
2023-06-30T12:49:45.337Z,24.35
2023-06-30T12:50:45.578Z,24.27
2023-06-30T12:51:45.323Z,24.27
2023-06-30T12:52:45.303Z,24.18
2023-06-30T12:53:45.310Z,23.93
2023-06-30T12:54:45.302Z,23.90
2023-06-30T12:55:45.276Z,23.93
2023-06-30T12:56:45.270Z,23.78
2023-06-30T12:57:45.274Z,23.73
2023-06-30T12:58:45.242Z,23.68
2023-06-30T12:59:50.263Z,23.65
2023-06-30T13:00:45.723Z,23.69
2023-06-30T13:01:45.298Z,23.80
2023-06-30T13:02:45.255Z,23.70
2023-06-30T13:03:45.259Z,23.85
2023-06-30T13:04:45.185Z,23.87
2023-06-30T13:05:45.166Z,23.87
2023-06-30T13:06:45.165Z,23.94
2023-06-30T13:07:45.169Z,23.95
2023-06-30T13:08:45.126Z,24.06
2023-06-30T13:09:45.129Z,24.00
2023-06-30T13:10:45.517Z,24.10
2023-06-30T13:11:45.102Z,24.12
2023-06-30T13:12:50.152Z,24.12
2023-06-30T13:13:45.067Z,23.98
2023-06-30T13:14:45.069Z,23.98
2023-06-30T13:15:45.474Z,24.13
2023-06-30T13:16:45.076Z,24.08
2023-06-30T13:17:45.070Z,24.12
2023-06-30T13:18:45.027Z,24.16
2023-06-30T13:19:45.012Z,24.13
2023-06-30T13:20:45.015Z,24.06
2023-06-30T13:21:44.981Z,24.06
2023-06-30T13:22:56.922Z,24.02
2023-06-30T13:23:50.019Z,23.98
2023-06-30T13:24:45.075Z,23.97
2023-06-30T13:25:45.408Z,24.00
2023-06-30T13:26:44.927Z,23.97
2023-06-30T13:27:44.913Z,23.91
2023-06-30T13:28:44.928Z,23.93
2023-06-30T13:29:44.903Z,23.84
2023-06-30T13:30:45.158Z,23.79
2023-06-30T13:31:44.921Z,23.80
2023-06-30T13:32:44.922Z,23.78
2023-06-30T13:33:44.858Z,23.76
2023-06-30T13:34:49.883Z,23.83
2023-06-30T13:35:45.074Z,23.79
2023-06-30T13:36:44.860Z,23.72
2023-06-30T13:37:44.817Z,23.80
2023-06-30T13:38:44.827Z,23.79
2023-06-30T13:39:44.825Z,23.80
2023-06-30T13:40:45.033Z,23.75
2023-06-30T13:41:44.761Z,23.76
2023-06-30T13:42:44.807Z,23.73
2023-06-30T13:43:44.754Z,23.78
2023-06-30T13:44:44.747Z,23.70
2023-06-30T13:45:49.795Z,23.84
2023-06-30T13:46:44.727Z,23.91
2023-06-30T13:47:44.740Z,23.84
2023-06-30T13:48:44.705Z,23.73
2023-06-30T13:49:44.724Z,23.79
2023-06-30T13:50:44.706Z,23.70
2023-06-30T13:51:44.658Z,23.68
2023-06-30T13:52:44.647Z,23.73
2023-06-30T13:53:44.653Z,23.70
2023-06-30T13:54:44.622Z,23.57
2023-06-30T13:55:44.993Z,23.72
2023-06-30T13:56:49.627Z,23.72
2023-06-30T13:57:44.597Z,23.76
2023-06-30T13:58:44.571Z,23.83
2023-06-30T13:59:44.565Z,23.94
2023-06-30T14:00:44.794Z,24.10
2023-06-30T14:01:44.581Z,24.13
2023-06-30T14:02:44.562Z,24.10
2023-06-30T14:03:44.546Z,24.24
2023-06-30T14:04:44.655Z,24.27
2023-06-30T14:05:44.804Z,24.31
2023-06-30T14:06:44.491Z,24.42
2023-06-30T14:07:49.536Z,24.47
2023-06-30T14:08:44.461Z,24.47
2023-06-30T14:09:44.454Z,24.47
2023-06-30T14:10:44.695Z,24.45
2023-06-30T14:11:44.442Z,24.39
2023-06-30T14:12:44.418Z,24.46
2023-06-30T14:13:44.435Z,24.43
2023-06-30T14:14:45.227Z,24.45
2023-06-30T14:15:44.688Z,24.46
2023-06-30T14:16:44.448Z,24.47
2023-06-30T14:17:44.467Z,24.46
2023-06-30T14:18:49.388Z,24.45
2023-06-30T14:19:44.350Z,24.46
2023-06-30T14:20:44.604Z,24.53
2023-06-30T14:21:44.354Z,24.73
2023-06-30T14:22:44.309Z,24.76
2023-06-30T14:23:44.300Z,24.77
2023-06-30T14:24:44.318Z,24.65
2023-06-30T14:25:44.764Z,24.69
2023-06-30T14:26:44.295Z,24.69
2023-06-30T14:27:44.267Z,24.68
2023-06-30T14:28:44.250Z,24.62
2023-06-30T14:29:49.321Z,24.53
2023-06-30T14:30:44.306Z,24.50
2023-06-30T14:31:44.212Z,24.47
2023-06-30T14:32:44.332Z,24.45
2023-06-30T14:33:44.188Z,24.42
2023-06-30T14:34:44.193Z,24.46
2023-06-30T14:35:44.437Z,24.45
2023-06-30T14:36:44.171Z,24.47
2023-06-30T14:37:44.152Z,24.49
2023-06-30T14:38:44.150Z,24.46
2023-06-30T14:39:44.134Z,24.43
2023-06-30T14:40:49.131Z,24.37
2023-06-30T14:41:53.642Z,24.43
2023-06-30T14:42:44.092Z,24.43
2023-06-30T14:43:44.088Z,24.52
2023-06-30T14:44:44.104Z,24.52
2023-06-30T14:45:44.425Z,24.55
2023-06-30T14:46:44.077Z,24.47
2023-06-30T14:47:44.085Z,24.43
2023-06-30T14:48:44.058Z,24.50
2023-06-30T14:49:44.038Z,24.52
2023-06-30T14:50:44.013Z,24.49
2023-06-30T14:51:49.024Z,24.52
2023-06-30T14:52:43.981Z,24.47
2023-06-30T14:53:43.981Z,24.46
2023-06-30T14:54:43.961Z,24.46
2023-06-30T14:55:44.162Z,24.35
2023-06-30T14:56:43.937Z,24.40
2023-06-30T14:57:43.952Z,24.37
2023-06-30T14:58:43.928Z,24.47
2023-06-30T14:59:43.912Z,24.52
2023-06-30T15:00:43.891Z,24.47
2023-06-30T15:01:43.928Z,24.57
2023-06-30T15:02:49.100Z,24.62
2023-06-30T15:03:43.958Z,24.61
2023-06-30T15:04:43.926Z,24.57
2023-06-30T15:05:44.033Z,24.49
2023-06-30T15:06:43.827Z,24.49
2023-06-30T15:07:46.147Z,24.60
2023-06-30T15:08:43.805Z,24.46
2023-06-30T15:09:43.793Z,24.52
2023-06-30T15:10:43.789Z,24.43
2023-06-30T15:11:43.814Z,24.58
2023-06-30T15:12:43.782Z,24.60
2023-06-30T15:13:48.788Z,24.46
2023-06-30T15:14:43.745Z,24.49
2023-06-30T15:15:43.974Z,24.47
2023-06-30T15:16:43.750Z,24.67
2023-06-30T15:17:43.788Z,24.64
2023-06-30T15:18:43.691Z,24.62
2023-06-30T15:19:45.726Z,24.62
2023-06-30T15:20:43.709Z,24.67
2023-06-30T15:21:43.691Z,24.65
2023-06-30T15:22:43.655Z,24.68
2023-06-30T15:23:43.669Z,24.64
2023-06-30T15:24:48.662Z,24.61
2023-06-30T15:25:43.868Z,24.55
2023-06-30T15:26:43.615Z,24.61
2023-06-30T15:27:43.631Z,24.65
2023-06-30T15:28:43.588Z,24.60
2023-06-30T15:29:43.614Z,24.77
2023-06-30T15:30:43.819Z,24.73
2023-06-30T15:31:43.581Z,24.68
2023-06-30T15:32:43.603Z,24.77
2023-06-30T15:33:43.652Z,24.68
2023-06-30T15:34:43.518Z,24.67
2023-06-30T15:35:48.704Z,24.83
2023-06-30T15:36:43.495Z,24.68
2023-06-30T15:37:43.494Z,24.78
2023-06-30T15:38:43.474Z,24.67
2023-06-30T15:39:43.470Z,24.65
2023-06-30T15:40:43.463Z,24.78
2023-06-30T15:41:43.456Z,24.80
2023-06-30T15:42:43.429Z,24.77
2023-06-30T15:43:43.418Z,24.85
2023-06-30T15:44:43.405Z,24.84
2023-06-30T15:45:43.417Z,24.83
2023-06-30T15:46:48.533Z,24.90
2023-06-30T15:47:43.405Z,24.85
2023-06-30T15:48:43.381Z,24.88
2023-06-30T15:49:43.373Z,24.84
2023-06-30T15:50:43.370Z,24.87
2023-06-30T15:51:43.353Z,24.87
2023-06-30T15:52:43.361Z,24.85
2023-06-30T15:53:43.331Z,24.91
2023-06-30T15:54:43.321Z,24.95
2023-06-30T15:55:43.532Z,24.96
2023-06-30T15:56:43.273Z,24.95
2023-06-30T15:57:48.291Z,24.98
2023-06-30T15:58:43.282Z,24.99
2023-06-30T15:59:43.280Z,25.05
2023-06-30T16:00:43.273Z,25.02
2023-06-30T16:01:43.238Z,25.02
2023-06-30T16:02:43.390Z,24.99
2023-06-30T16:03:43.409Z,25.13
2023-06-30T16:04:43.272Z,25.10
2023-06-30T16:05:43.268Z,25.15
2023-06-30T16:06:43.187Z,25.06
2023-06-30T16:07:43.179Z,25.10
2023-06-30T16:08:48.188Z,25.14
2023-06-30T16:09:43.140Z,25.05
2023-06-30T16:10:43.123Z,25.02
2023-06-30T16:11:43.135Z,24.91
2023-06-30T16:12:43.134Z,24.91
2023-06-30T16:13:43.127Z,24.91
2023-06-30T16:14:43.082Z,24.85
2023-06-30T16:15:43.087Z,24.90
2023-06-30T16:16:43.081Z,24.85
2023-06-30T16:17:43.080Z,24.73
2023-06-30T16:18:43.131Z,24.83
2023-06-30T16:19:48.049Z,24.68
2023-06-30T16:20:43.015Z,24.65
2023-06-30T16:21:43.014Z,24.69
2023-06-30T16:22:43.000Z,24.67
2023-06-30T16:23:43.005Z,24.73
2023-06-30T16:24:45.647Z,24.64
2023-06-30T16:25:42.961Z,24.69
2023-06-30T16:26:42.947Z,24.60
2023-06-30T16:27:42.951Z,24.58
2023-06-30T16:28:42.955Z,24.47
2023-06-30T16:29:42.948Z,24.53
2023-06-30T16:30:47.942Z,24.52
2023-06-30T16:31:42.915Z,24.43
2023-06-30T16:32:42.919Z,24.37
2023-06-30T16:33:42.936Z,24.37
2023-06-30T16:34:43.073Z,24.40
2023-06-30T16:35:42.878Z,24.37
2023-06-30T16:36:42.916Z,24.46
2023-06-30T16:37:42.828Z,24.30
2023-06-30T16:38:42.819Z,24.28
2023-06-30T16:39:42.836Z,24.35
2023-06-30T16:40:42.798Z,24.31
2023-06-30T16:41:47.820Z,24.34
2023-06-30T16:42:42.797Z,24.42
2023-06-30T16:43:42.804Z,24.35
2023-06-30T16:44:42.758Z,24.45
2023-06-30T16:45:42.798Z,24.42
2023-06-30T16:46:42.795Z,24.43
2023-06-30T16:47:44.727Z,24.32
2023-06-30T16:48:42.715Z,24.28
2023-06-30T16:49:42.719Z,24.25
2023-06-30T16:50:42.696Z,24.21
2023-06-30T16:51:42.701Z,24.24
2023-06-30T16:52:47.685Z,24.28
2023-06-30T16:53:42.653Z,24.22
2023-06-30T16:54:42.642Z,24.27
2023-06-30T16:55:42.784Z,24.20
2023-06-30T16:56:42.771Z,24.25
2023-06-30T16:57:42.668Z,24.31
2023-06-30T16:58:42.632Z,24.13
2023-06-30T16:59:42.594Z,24.24
2023-06-30T17:00:42.701Z,24.10
2023-06-30T17:01:42.632Z,24.10
2023-06-30T17:02:42.704Z,24.10
2023-06-30T17:03:47.635Z,24.16
2023-06-30T17:04:42.655Z,24.21
2023-06-30T17:05:42.679Z,24.09
2023-06-30T17:06:42.584Z,24.10
2023-06-30T17:07:42.591Z,24.16
2023-06-30T17:08:42.588Z,24.18
2023-06-30T17:09:42.518Z,24.09
2023-06-30T17:10:44.463Z,24.13
2023-06-30T17:11:42.489Z,24.09
2023-06-30T17:12:42.469Z,24.10
2023-06-30T17:13:42.476Z,24.09
2023-06-30T17:14:47.495Z,24.02
2023-06-30T17:15:42.417Z,24.02
2023-06-30T17:16:42.469Z,24.03
2023-06-30T17:17:42.481Z,24.05
2023-06-30T17:18:42.407Z,23.98
2023-06-30T17:19:42.400Z,23.95
2023-06-30T17:20:42.368Z,23.87
2023-06-30T17:21:42.383Z,23.90
2023-06-30T17:22:42.385Z,23.90
2023-06-30T17:23:42.336Z,23.83
2023-06-30T17:24:42.326Z,23.85
2023-06-30T17:25:47.747Z,23.85
2023-06-30T17:26:42.305Z,23.84
2023-06-30T17:27:42.336Z,23.83
2023-06-30T17:28:42.280Z,23.87
2023-06-30T17:29:42.266Z,23.85
2023-06-30T17:30:42.310Z,23.95
2023-06-30T17:31:42.236Z,23.83
2023-06-30T17:32:42.287Z,23.90
2023-06-30T17:33:42.229Z,23.84
2023-06-30T17:34:42.233Z,23.87
2023-06-30T17:35:42.207Z,23.76
2023-06-30T17:36:47.196Z,23.87
2023-06-30T17:37:42.175Z,23.84
2023-06-30T17:38:42.175Z,23.78
2023-06-30T17:39:42.164Z,23.84
2023-06-30T17:40:42.145Z,23.84
2023-06-30T17:41:42.144Z,23.91
2023-06-30T17:42:42.177Z,23.80
2023-06-30T17:43:42.134Z,23.91
2023-06-30T17:44:42.124Z,23.85
2023-06-30T17:45:42.104Z,23.83
2023-06-30T17:46:42.093Z,23.85
2023-06-30T17:47:47.110Z,23.85
2023-06-30T17:48:42.084Z,23.91
2023-06-30T17:49:42.048Z,23.87
2023-06-30T17:50:42.024Z,23.87
2023-06-30T17:51:42.105Z,23.80
2023-06-30T17:52:42.006Z,23.88
2023-06-30T17:53:42.056Z,23.87
2023-06-30T17:54:42.210Z,23.94